Impacts TAF Board
For situational awareness. Not to be used for flight planning purposes.
IDs:

KDHN - Dothan Rgnl, AL, US

Issued at 0521 UTC 17 Feb 2019
Updated at 0920 UTC 17 Feb 2019
Potential Impact None Slight Moderate High
Time<<17/22Z 17/23Z 18/00Z 18/01Z 18/02Z 18/03Z 18/04Z 18/05Z 18/06Z 18/07Z 18/08Z 18/09Z 18/10Z>>
Type PRVL PRVL PRVL PRVL PRVL PRVL PRVL PRVL
VIS >6 >6 >6 >6 >6 >6 >6 >6
CIG 25 25 15 15 15 15 15 15
Cover BKN BKN BKN BKN BKN BKN BKN BKN
FltCat MVFR MVFR MVFR MVFR MVFR MVFR MVFR MVFR
WX -- -- -- -- -- -- -- --
WDir 200 200 200 200 200 200 200 200
WSpd 12 12 10 10 10 10 10 10
WGst 18 18 -- -- -- -- -- --
Raw TAF
KDHN 170521Z 1706/1806 23004KT P6SM SCT035
  FM170800 20004KT 2SM BR OVC007
  FM171500 20012G18KT P6SM BKN025
  FM180000 20010KT P6SM BKN015


METAR Board
Radar Display
Forecast Discussion
For situational awareness. Not to be used for flight planning purposes.